createdAt,value
2023-01-30T00:02:06.510Z,19.10
2023-01-30T00:04:35.259Z,20.13
2023-01-30T00:07:06.623Z,20.20
2023-01-30T00:09:35.072Z,19.50
2023-01-30T00:12:07.979Z,19.07
2023-01-30T00:14:36.290Z,20.17
2023-01-30T00:17:08.005Z,18.40
2023-01-30T00:19:36.474Z,20.40
2023-01-30T00:22:05.436Z,17.87
2023-01-30T00:24:34.066Z,19.03
2023-01-30T00:27:02.451Z,19.70
2023-01-30T00:29:34.595Z,20.07
2023-01-30T00:32:03.882Z,18.87
2023-01-30T00:34:32.986Z,19.87
2023-01-30T00:37:08.207Z,19.13
2023-01-30T00:39:37.018Z,19.07
2023-01-30T00:42:24.601Z,18.80
2023-01-30T00:45:13.153Z,19.47
2023-01-30T00:47:41.630Z,19.17
2023-01-30T00:50:11.070Z,21.03
2023-01-30T00:52:39.435Z,22.27
2023-01-30T00:55:09.160Z,20.20
2023-01-30T00:57:37.673Z,19.90
2023-01-30T01:00:10.414Z,18.43
2023-01-30T01:02:41.835Z,18.67
2023-01-30T01:05:10.637Z,20.13
2023-01-30T01:07:39.783Z,17.90
2023-01-30T01:10:09.175Z,19.60
2023-01-30T01:12:37.564Z,21.07
2023-01-30T01:15:10.832Z,21.27
2023-01-30T01:17:39.680Z,19.07
2023-01-30T01:20:09.537Z,18.87
2023-01-30T01:22:37.905Z,18.70
2023-01-30T01:25:10.005Z,19.37
2023-01-30T01:27:39.286Z,19.97
2023-01-30T01:30:10.659Z,22.77
2023-01-30T01:32:39.176Z,20.27
2023-01-30T01:35:11.388Z,21.43
2023-01-30T01:37:39.976Z,20.47
2023-01-30T01:40:31.584Z,19.50
2023-01-30T01:43:03.531Z,18.37
2023-01-30T01:45:37.276Z,19.77
2023-01-30T01:48:13.284Z,22.60
2023-01-30T01:50:48.563Z,21.67
2023-01-30T01:53:20.456Z,20.13
2023-01-30T01:55:53.302Z,20.03
2023-01-30T01:58:27.501Z,18.90
2023-01-30T02:01:00.147Z,22.63
2023-01-30T02:03:33.857Z,20.57
2023-01-30T02:06:04.347Z,21.73
2023-01-30T02:08:36.363Z,21.77
2023-01-30T02:11:11.993Z,20.33
2023-01-30T02:13:40.697Z,18.83
2023-01-30T02:16:13.577Z,21.57
2023-01-30T02:18:44.511Z,20.40
2023-01-30T02:22:03.334Z,20.80
2023-01-30T02:25:10.898Z,23.37
2023-01-30T02:28:04.565Z,19.63
2023-01-30T02:30:44.741Z,22.40
2023-01-30T02:33:22.915Z,18.30
2023-01-30T02:36:03.237Z,21.00
2023-01-30T02:38:40.240Z,23.40
2023-01-30T02:41:19.062Z,23.10
2023-01-30T02:43:55.809Z,20.43
2023-01-30T02:46:29.648Z,19.40
2023-01-30T02:49:04.211Z,23.93
2023-01-30T02:51:36.053Z,20.33
2023-01-30T02:54:06.371Z,20.63
2023-01-30T02:56:46.535Z,20.90
2023-01-30T02:59:19.620Z,22.30
2023-01-30T03:02:12.092Z,20.40
2023-01-30T03:05:00.721Z,21.87
2023-01-30T03:07:42.900Z,21.90
2023-01-30T03:10:19.981Z,19.97
2023-01-30T03:13:01.573Z,23.13
2023-01-30T03:15:35.035Z,23.83
2023-01-30T03:18:05.927Z,25.20
2023-01-30T03:20:38.703Z,24.03
2023-01-30T03:23:09.992Z,24.17
2023-01-30T03:25:40.984Z,21.67
2023-01-30T03:28:10.516Z,22.27
2023-01-30T03:30:42.748Z,24.03
2023-01-30T03:33:13.708Z,21.07
2023-01-30T03:35:47.981Z,21.23
2023-01-30T03:38:16.471Z,24.27
2023-01-30T03:40:45.363Z,24.80
2023-01-30T03:43:13.839Z,21.70
2023-01-30T03:45:43.149Z,21.90
2023-01-30T03:48:13.011Z,22.50
2023-01-30T03:50:41.591Z,24.37
2023-01-30T03:53:10.360Z,22.93
2023-01-30T03:55:39.254Z,22.23
2023-01-30T03:58:08.362Z,21.83
2023-01-30T04:00:37.070Z,20.53
2023-01-30T04:03:06.081Z,20.37
2023-01-30T04:05:35.819Z,19.53
2023-01-30T04:08:07.392Z,20.33
2023-01-30T04:10:36.431Z,20.00
2023-01-30T04:13:05.499Z,19.03
2023-01-30T04:15:34.581Z,21.20
2023-01-30T04:18:35.537Z,20.90
2023-01-30T04:21:25.695Z,20.63
2023-01-30T04:23:54.218Z,18.60
2023-01-30T04:26:22.593Z,20.30
2023-01-30T04:28:51.582Z,19.80
2023-01-30T04:31:20.251Z,19.00
2023-01-30T04:34:07.754Z,17.20
2023-01-30T04:36:38.047Z,17.73
2023-01-30T04:39:06.447Z,18.27
2023-01-30T04:41:35.543Z,17.13
2023-01-30T04:44:04.610Z,17.67
2023-01-30T04:46:42.410Z,18.73
2023-01-30T04:49:14.458Z,19.00
2023-01-30T04:51:44.765Z,15.50
2023-01-30T04:54:13.522Z,15.83
2023-01-30T04:56:45.682Z,16.07
2023-01-30T04:59:14.705Z,15.27
2023-01-30T05:01:45.630Z,16.20
2023-01-30T05:04:15.904Z,14.93
2023-01-30T05:06:45.709Z,14.20
2023-01-30T05:09:14.035Z,15.00
2023-01-30T05:11:44.722Z,12.63
2023-01-30T05:14:13.249Z,10.97
2023-01-30T05:16:41.609Z,12.17
2023-01-30T05:19:11.897Z,12.47
2023-01-30T05:21:40.449Z,13.23
2023-01-30T05:24:10.406Z,11.97
2023-01-30T05:26:38.777Z,10.93
2023-01-30T05:29:07.132Z,10.33
2023-01-30T05:31:36.234Z,11.93
2023-01-30T05:34:04.608Z,9.70
2023-01-30T05:36:32.957Z,10.20
2023-01-30T05:39:01.363Z,10.10
2023-01-30T05:41:31.231Z,9.93
2023-01-30T05:43:59.822Z,9.77
2023-01-30T05:46:28.219Z,10.10
2023-01-30T05:48:56.500Z,10.03
2023-01-30T05:51:27.072Z,10.80
2023-01-30T05:53:56.283Z,11.23
2023-01-30T05:56:24.751Z,10.10
2023-01-30T05:58:56.398Z,11.03
2023-01-30T06:01:31.419Z,10.70
2023-01-30T06:04:03.048Z,10.80
2023-01-30T06:06:31.822Z,11.27
2023-01-30T06:09:00.296Z,9.90
2023-01-30T06:11:28.968Z,10.30
2023-01-30T06:13:58.743Z,10.07
2023-01-30T06:16:27.799Z,12.53
2023-01-30T06:18:56.353Z,10.57
2023-01-30T06:21:24.846Z,9.83
2023-01-30T06:23:53.216Z,10.73
2023-01-30T06:26:21.640Z,10.63
2023-01-30T06:28:50.025Z,10.27
2023-01-30T06:31:19.961Z,12.27
2023-01-30T06:33:51.086Z,11.33
2023-01-30T06:36:19.585Z,11.63
2023-01-30T06:38:48.694Z,12.70
2023-01-30T06:41:17.274Z,13.97
2023-01-30T06:43:46.797Z,13.30
2023-01-30T22:30:23.239Z,14.20
2023-01-30T22:32:54.912Z,14.70
2023-01-30T22:35:23.344Z,19.33
2023-01-30T22:37:51.725Z,17.53
2023-01-30T22:40:20.243Z,14.53
2023-01-30T22:42:49.791Z,19.13
2023-01-30T22:45:19.058Z,14.53
2023-01-30T22:47:49.498Z,11.73
2023-01-30T22:50:18.546Z,12.67
2023-01-30T22:52:46.913Z,11.63
2023-01-30T22:55:15.479Z,12.93
2023-01-30T22:57:43.945Z,16.67
2023-01-30T23:00:13.121Z,14.07
2023-01-30T23:02:41.489Z,14.97
2023-01-30T23:05:12.025Z,13.30
2023-01-30T23:07:40.428Z,13.73
2023-01-30T23:10:10.216Z,11.10
2023-01-30T23:12:56.160Z,13.93
2023-01-30T23:15:24.564Z,12.27
2023-01-30T23:18:10.387Z,12.10
2023-01-30T23:20:40.321Z,13.33
2023-01-30T23:23:08.948Z,10.97
2023-01-30T23:25:41.600Z,15.83
2023-01-30T23:28:10.188Z,13.87
2023-01-30T23:30:39.092Z,16.47
2023-01-30T23:33:07.687Z,15.37
2023-01-30T23:35:36.653Z,17.27
2023-01-30T23:38:19.189Z,14.17
2023-01-30T23:40:48.730Z,11.77
2023-01-30T23:43:17.733Z,13.03
2023-01-30T23:45:46.273Z,12.93
2023-01-30T23:48:14.763Z,12.70
2023-01-30T23:50:43.342Z,13.33
2023-01-30T23:53:15.295Z,14.43
2023-01-30T23:55:52.307Z,20.13
2023-01-30T23:58:20.803Z,18.47
